Centralia, Washington
Current Conditions -  °F | °C
As of 1:35 PM on Sunday 23 Nov 2014 (Local Time) from KCLS Reporting Station
Clear Clear  
Wind Chill: 13°   Ceiling: Unl
Heat Index: 13°   Visibility: 10mi
Dew Point: 10°   Wind: 3mph
Humidity: 82%   Direction: NA
Pressure: 30.19"   Gusts: NA
Location:  46.73°N, 122.95°W
Report Text: KCLS 232135Z AUTO VRB03KT 10SM CLR 13/10 A3019 RMK AO2
Loading
Personal Weather Stations






























Interactive Weather Map New forecast layout! Learn more

10-Day Weather Forecast

Advertisements
Track Severe Weather on mobile